sensor_id;sensor_type;location;lat;lon;timestamp;temperature;humidity
12229;DHT22;6177;52.402;9.800;2022-10-23T00:00:41;12.50;90.10
12229;DHT22;6177;52.402;9.800;2022-10-23T00:03:26;12.50;90.10
12229;DHT22;6177;52.402;9.800;2022-10-23T00:06:11;12.40;90.10
12229;DHT22;6177;52.402;9.800;2022-10-23T00:08:56;12.40;90.20
12229;DHT22;6177;52.402;9.800;2022-10-23T00:11:41;12.40;90.20
12229;DHT22;6177;52.402;9.800;2022-10-23T00:14:27;12.40;90.30
12229;DHT22;6177;52.402;9.800;2022-10-23T00:17:12;12.40;90.30
12229;DHT22;6177;52.402;9.800;2022-10-23T00:20:00;12.40;90.30
12229;DHT22;6177;52.402;9.800;2022-10-23T00:22:50;12.40;90.30
12229;DHT22;6177;52.402;9.800;2022-10-23T00:25:42;12.40;90.30
12229;DHT22;6177;52.402;9.800;2022-10-23T00:28:30;12.40;90.30
12229;DHT22;6177;52.402;9.800;2022-10-23T00:31:16;12.40;90.30
12229;DHT22;6177;52.402;9.800;2022-10-23T00:34:02;12.40;90.40
12229;DHT22;6177;52.402;9.800;2022-10-23T00:36:47;12.40;90.40
12229;DHT22;6177;52.402;9.800;2022-10-23T00:39:34;12.50;90.40
12229;DHT22;6177;52.402;9.800;2022-10-23T00:42:20;12.50;90.30
12229;DHT22;6177;52.402;9.800;2022-10-23T00:45:26;12.50;90.20
12229;DHT22;6177;52.402;9.800;2022-10-23T00:48:11;12.50;90.20
12229;DHT22;6177;52.402;9.800;2022-10-23T00:50:59;12.50;90.30
12229;DHT22;6177;52.402;9.800;2022-10-23T00:53:44;12.50;90.30
12229;DHT22;6177;52.402;9.800;2022-10-23T00:56:32;12.50;90.30
12229;DHT22;6177;52.402;9.800;2022-10-23T00:59:20;12.60;90.30
12229;DHT22;6177;52.402;9.800;2022-10-23T01:02:06;12.50;90.20
12229;DHT22;6177;52.402;9.800;2022-10-23T01:04:51;12.60;90.30
12229;DHT22;6177;52.402;9.800;2022-10-23T01:10:55;12.60;90.10
12229;DHT22;6177;52.402;9.800;2022-10-23T01:13:50;12.50;90.10
12229;DHT22;6177;52.402;9.800;2022-10-23T01:16:48;12.50;90.30
12229;DHT22;6177;52.402;9.800;2022-10-23T01:19:55;12.50;90.30
12229;DHT22;6177;52.402;9.800;2022-10-23T01:29:09;12.40;90.50
12229;DHT22;6177;52.402;9.800;2022-10-23T01:32:11;12.40;90.40
12229;DHT22;6177;52.402;9.800;2022-10-23T01:38:30;12.40;90.60
12229;DHT22;6177;52.402;9.800;2022-10-23T01:41:40;12.30;90.60
12229;DHT22;6177;52.402;9.800;2022-10-23T01:44:38;12.30;90.60
12229;DHT22;6177;52.402;9.800;2022-10-23T01:47:28;12.30;90.60
12229;DHT22;6177;52.402;9.800;2022-10-23T01:50:24;12.20;90.80
12229;DHT22;6177;52.402;9.800;2022-10-23T01:53:18;12.20;90.90
12229;DHT22;6177;52.402;9.800;2022-10-23T01:56:09;12.20;90.90
12229;DHT22;6177;52.402;9.800;2022-10-23T01:59:00;12.10;91.00
12229;DHT22;6177;52.402;9.800;2022-10-23T02:01:54;12.10;91.00
12229;DHT22;6177;52.402;9.800;2022-10-23T02:05:16;12.10;91.10
12229;DHT22;6177;52.402;9.800;2022-10-23T02:07:52;12.10;91.20
12229;DHT22;6177;52.402;9.800;2022-10-23T02:11:09;12.10;91.30
12229;DHT22;6177;52.402;9.800;2022-10-23T02:14:10;12.00;91.30
12229;DHT22;6177;52.402;9.800;2022-10-23T02:20:22;12.00;91.50
12229;DHT22;6177;52.402;9.800;2022-10-23T02:26:24;12.00;91.70
12229;DHT22;6177;52.402;9.800;2022-10-23T02:29:20;12.10;91.60
12229;DHT22;6177;52.402;9.800;2022-10-23T02:32:10;12.10;91.60
12229;DHT22;6177;52.402;9.800;2022-10-23T02:34:58;12.10;91.60
12229;DHT22;6177;52.402;9.800;2022-10-23T02:37:55;12.10;91.60
12229;DHT22;6177;52.402;9.800;2022-10-23T02:40:44;12.10;91.60
12229;DHT22;6177;52.402;9.800;2022-10-23T02:43:36;12.10;91.70
12229;DHT22;6177;52.402;9.800;2022-10-23T02:50:02;12.10;91.70
12229;DHT22;6177;52.402;9.800;2022-10-23T02:58:44;12.10;91.80
12229;DHT22;6177;52.402;9.800;2022-10-23T03:01:39;12.10;91.90
12229;DHT22;6177;52.402;9.800;2022-10-23T03:04:27;12.10;91.80
12229;DHT22;6177;52.402;9.800;2022-10-23T03:07:14;12.00;91.80
12229;DHT22;6177;52.402;9.800;2022-10-23T03:10:01;11.90;91.70
12229;DHT22;6177;52.402;9.800;2022-10-23T03:12:48;11.90;91.70
12229;DHT22;6177;52.402;9.800;2022-10-23T03:15:33;11.80;91.80
12229;DHT22;6177;52.402;9.800;2022-10-23T03:18:18;11.70;91.80
12229;DHT22;6177;52.402;9.800;2022-10-23T03:21:07;11.70;91.90
12229;DHT22;6177;52.402;9.800;2022-10-23T03:23:52;11.60;92.00
12229;DHT22;6177;52.402;9.800;2022-10-23T03:26:43;11.50;92.00
12229;DHT22;6177;52.402;9.800;2022-10-23T03:29:28;11.50;92.10
12229;DHT22;6177;52.402;9.800;2022-10-23T03:32:15;11.40;92.10
12229;DHT22;6177;52.402;9.800;2022-10-23T03:35:02;11.40;92.20
12229;DHT22;6177;52.402;9.800;2022-10-23T03:37:47;11.30;92.20
12229;DHT22;6177;52.402;9.800;2022-10-23T03:40:31;11.30;92.30
12229;DHT22;6177;52.402;9.800;2022-10-23T03:43:16;11.20;92.40
12229;DHT22;6177;52.402;9.800;2022-10-23T03:46:01;11.20;92.40
12229;DHT22;6177;52.402;9.800;2022-10-23T03:48:46;11.20;92.50
12229;DHT22;6177;52.402;9.800;2022-10-23T03:51:31;11.10;92.50
12229;DHT22;6177;52.402;9.800;2022-10-23T03:54:20;11.10;92.60
12229;DHT22;6177;52.402;9.800;2022-10-23T03:57:05;11.10;92.70
12229;DHT22;6177;52.402;9.800;2022-10-23T03:59:51;11.00;92.70
12229;DHT22;6177;52.402;9.800;2022-10-23T04:02:36;11.00;92.80
12229;DHT22;6177;52.402;9.800;2022-10-23T04:05:21;10.90;92.80
12229;DHT22;6177;52.402;9.800;2022-10-23T04:08:11;10.90;92.80
12229;DHT22;6177;52.402;9.800;2022-10-23T04:10:58;10.90;92.90
12229;DHT22;6177;52.402;9.800;2022-10-23T04:13:54;10.80;92.90
12229;DHT22;6177;52.402;9.800;2022-10-23T04:16:39;10.80;92.90
12229;DHT22;6177;52.402;9.800;2022-10-23T04:19:24;10.80;93.00
12229;DHT22;6177;52.402;9.800;2022-10-23T04:22:13;10.80;93.10
12229;DHT22;6177;52.402;9.800;2022-10-23T04:24:57;10.70;93.10
12229;DHT22;6177;52.402;9.800;2022-10-23T04:27:42;10.70;93.20
12229;DHT22;6177;52.402;9.800;2022-10-23T04:30:26;10.70;93.20
12229;DHT22;6177;52.402;9.800;2022-10-23T04:33:11;10.70;93.30
12229;DHT22;6177;52.402;9.800;2022-10-23T04:35:56;10.70;93.30
12229;DHT22;6177;52.402;9.800;2022-10-23T04:38:41;10.70;93.40
12229;DHT22;6177;52.402;9.800;2022-10-23T04:41:27;10.70;93.40
12229;DHT22;6177;52.402;9.800;2022-10-23T04:44:17;10.60;93.40
12229;DHT22;6177;52.402;9.800;2022-10-23T04:47:02;10.60;93.50
12229;DHT22;6177;52.402;9.800;2022-10-23T04:49:48;10.60;93.50
12229;DHT22;6177;52.402;9.800;2022-10-23T04:52:39;10.60;93.60
12229;DHT22;6177;52.402;9.800;2022-10-23T04:55:56;10.60;93.60
12229;DHT22;6177;52.402;9.800;2022-10-23T04:58:48;10.60;93.70
12229;DHT22;6177;52.402;9.800;2022-10-23T05:01:33;10.60;93.80
12229;DHT22;6177;52.402;9.800;2022-10-23T05:04:18;10.70;93.90
12229;DHT22;6177;52.402;9.800;2022-10-23T05:07:21;10.70;93.90
12229;DHT22;6177;52.402;9.800;2022-10-23T05:10:16;10.70;94.00
12229;DHT22;6177;52.402;9.800;2022-10-23T05:13:06;10.70;94.10
12229;DHT22;6177;52.402;9.800;2022-10-23T05:15:51;10.70;94.20
12229;DHT22;6177;52.402;9.800;2022-10-23T05:18:44;10.70;94.30
12229;DHT22;6177;52.402;9.800;2022-10-23T05:21:33;10.80;94.30
12229;DHT22;6177;52.402;9.800;2022-10-23T05:24:23;10.80;94.40
12229;DHT22;6177;52.402;9.800;2022-10-23T05:27:13;10.80;94.60
12229;DHT22;6177;52.402;9.800;2022-10-23T05:29:59;10.80;94.50
12229;DHT22;6177;52.402;9.800;2022-10-23T05:32:47;10.80;94.60
12229;DHT22;6177;52.402;9.800;2022-10-23T05:35:32;10.80;94.60
12229;DHT22;6177;52.402;9.800;2022-10-23T05:38:17;10.80;94.80
12229;DHT22;6177;52.402;9.800;2022-10-23T05:41:02;10.80;94.60
12229;DHT22;6177;52.402;9.800;2022-10-23T05:43:47;10.80;94.60
12229;DHT22;6177;52.402;9.800;2022-10-23T05:46:55;10.90;94.70
12229;DHT22;6177;52.402;9.800;2022-10-23T05:50:11;10.80;94.70
12229;DHT22;6177;52.402;9.800;2022-10-23T05:53:12;10.90;94.70
12229;DHT22;6177;52.402;9.800;2022-10-23T05:56:19;10.90;94.70
12229;DHT22;6177;52.402;9.800;2022-10-23T05:59:12;10.90;94.80
12229;DHT22;6177;52.402;9.800;2022-10-23T06:02:21;10.90;94.80
12229;DHT22;6177;52.402;9.800;2022-10-23T06:05:20;10.90;94.80
12229;DHT22;6177;52.402;9.800;2022-10-23T06:08:31;10.90;94.90
12229;DHT22;6177;52.402;9.800;2022-10-23T06:11:17;10.90;94.90
12229;DHT22;6177;52.402;9.800;2022-10-23T06:14:11;10.90;94.90
12229;DHT22;6177;52.402;9.800;2022-10-23T06:16:56;11.00;95.00
12229;DHT22;6177;52.402;9.800;2022-10-23T06:19:43;11.00;95.00
12229;DHT22;6177;52.402;9.800;2022-10-23T06:22:28;11.00;95.00
12229;DHT22;6177;52.402;9.800;2022-10-23T06:25:26;11.00;95.00
12229;DHT22;6177;52.402;9.800;2022-10-23T06:28:13;11.10;95.00
12229;DHT22;6177;52.402;9.800;2022-10-23T06:30:58;11.10;95.10
12229;DHT22;6177;52.402;9.800;2022-10-23T06:33:43;11.10;95.00
12229;DHT22;6177;52.402;9.800;2022-10-23T06:36:28;11.20;95.10
12229;DHT22;6177;52.402;9.800;2022-10-23T06:39:23;11.20;95.00
12229;DHT22;6177;52.402;9.800;2022-10-23T06:42:17;11.20;95.00
12229;DHT22;6177;52.402;9.800;2022-10-23T06:45:14;11.30;95.00
12229;DHT22;6177;52.402;9.800;2022-10-23T06:48:37;11.40;95.00
12229;DHT22;6177;52.402;9.800;2022-10-23T06:51:27;11.40;95.00
12229;DHT22;6177;52.402;9.800;2022-10-23T06:54:14;11.50;95.00
12229;DHT22;6177;52.402;9.800;2022-10-23T06:57:25;11.50;95.00
12229;DHT22;6177;52.402;9.800;2022-10-23T07:00:10;11.50;95.00
12229;DHT22;6177;52.402;9.800;2022-10-23T07:03:03;11.60;95.00
12229;DHT22;6177;52.402;9.800;2022-10-23T07:05:48;11.70;95.00
12229;DHT22;6177;52.402;9.800;2022-10-23T07:08:34;11.80;95.00
12229;DHT22;6177;52.402;9.800;2022-10-23T07:11:22;11.80;94.90
12229;DHT22;6177;52.402;9.800;2022-10-23T07:14:07;11.90;94.90
12229;DHT22;6177;52.402;9.800;2022-10-23T07:16:51;12.00;94.80
12229;DHT22;6177;52.402;9.800;2022-10-23T07:19:37;12.10;94.70
12229;DHT22;6177;52.402;9.800;2022-10-23T07:22:26;12.20;94.60
12229;DHT22;6177;52.402;9.800;2022-10-23T07:25:32;12.30;94.50
12229;DHT22;6177;52.402;9.800;2022-10-23T07:28:18;12.40;94.30
12229;DHT22;6177;52.402;9.800;2022-10-23T07:31:03;12.60;94.20
12229;DHT22;6177;52.402;9.800;2022-10-23T07:34:08;12.60;94.10
12229;DHT22;6177;52.402;9.800;2022-10-23T07:36:52;12.70;94.10
12229;DHT22;6177;52.402;9.800;2022-10-23T07:39:38;12.80;93.90
12229;DHT22;6177;52.402;9.800;2022-10-23T07:42:22;12.90;93.70
12229;DHT22;6177;52.402;9.800;2022-10-23T07:45:08;13.00;93.60
12229;DHT22;6177;52.402;9.800;2022-10-23T07:47:55;13.00;93.50
12229;DHT22;6177;52.402;9.800;2022-10-23T07:50:44;13.10;93.40
12229;DHT22;6177;52.402;9.800;2022-10-23T07:53:28;13.20;93.20
12229;DHT22;6177;52.402;9.800;2022-10-23T07:56:23;13.30;93.10
12229;DHT22;6177;52.402;9.800;2022-10-23T07:59:28;13.40;92.90
12229;DHT22;6177;52.402;9.800;2022-10-23T08:02:14;13.50;92.80
12229;DHT22;6177;52.402;9.800;2022-10-23T08:04:59;13.60;92.60
12229;DHT22;6177;52.402;9.800;2022-10-23T08:07:51;13.70;92.50
12229;DHT22;6177;52.402;9.800;2022-10-23T08:10:35;13.80;92.40
12229;DHT22;6177;52.402;9.800;2022-10-23T08:13:20;13.90;92.20
12229;DHT22;6177;52.402;9.800;2022-10-23T08:16:13;14.00;91.90
12229;DHT22;6177;52.402;9.800;2022-10-23T08:19:16;14.20;91.70
12229;DHT22;6177;52.402;9.800;2022-10-23T08:22:02;14.30;91.40
12229;DHT22;6177;52.402;9.800;2022-10-23T08:24:47;14.40;91.20
12229;DHT22;6177;52.402;9.800;2022-10-23T08:27:32;14.60;91.00
12229;DHT22;6177;52.402;9.800;2022-10-23T08:30:16;14.70;90.80
12229;DHT22;6177;52.402;9.800;2022-10-23T08:33:05;14.80;90.60
12229;DHT22;6177;52.402;9.800;2022-10-23T08:35:51;14.90;90.40
12229;DHT22;6177;52.402;9.800;2022-10-23T08:38:43;15.00;90.10
12229;DHT22;6177;52.402;9.800;2022-10-23T08:41:42;15.10;89.90
12229;DHT22;6177;52.402;9.800;2022-10-23T08:44:41;15.20;89.40
12229;DHT22;6177;52.402;9.800;2022-10-23T08:47:40;15.30;88.90
12229;DHT22;6177;52.402;9.800;2022-10-23T08:50:44;15.40;88.40
12229;DHT22;6177;52.402;9.800;2022-10-23T08:53:38;15.50;88.00
12229;DHT22;6177;52.402;9.800;2022-10-23T08:56:32;15.70;87.60
12229;DHT22;6177;52.402;9.800;2022-10-23T08:59:27;15.70;87.20
12229;DHT22;6177;52.402;9.800;2022-10-23T09:05:13;16.00;86.60
12229;DHT22;6177;52.402;9.800;2022-10-23T09:11:15;16.20;85.60
12229;DHT22;6177;52.402;9.800;2022-10-23T09:17:24;16.40;84.70
12229;DHT22;6177;52.402;9.800;2022-10-23T09:20:25;16.50;84.30
12229;DHT22;6177;52.402;9.800;2022-10-23T09:23:20;16.50;83.60
12229;DHT22;6177;52.402;9.800;2022-10-23T09:26:17;16.70;83.70
12229;DHT22;6177;52.402;9.800;2022-10-23T09:29:13;16.80;83.40
12229;DHT22;6177;52.402;9.800;2022-10-23T09:32:04;16.90;82.70
12229;DHT22;6177;52.402;9.800;2022-10-23T09:34:51;17.00;82.20
12229;DHT22;6177;52.402;9.800;2022-10-23T09:37:44;17.10;81.80
12229;DHT22;6177;52.402;9.800;2022-10-23T09:40:40;17.20;81.50
12229;DHT22;6177;52.402;9.800;2022-10-23T09:43:26;17.30;81.30
12229;DHT22;6177;52.402;9.800;2022-10-23T09:46:17;17.40;81.00
12229;DHT22;6177;52.402;9.800;2022-10-23T09:49:02;17.50;80.60
12229;DHT22;6177;52.402;9.800;2022-10-23T09:54:59;17.70;80.40
12229;DHT22;6177;52.402;9.800;2022-10-23T09:57:45;17.80;79.80
12229;DHT22;6177;52.402;9.800;2022-10-23T10:00:31;17.90;79.30
12229;DHT22;6177;52.402;9.800;2022-10-23T10:03:19;18.00;79.00
12229;DHT22;6177;52.402;9.800;2022-10-23T10:06:28;18.00;78.60
12229;DHT22;6177;52.402;9.800;2022-10-23T10:09:15;18.10;78.60
12229;DHT22;6177;52.402;9.800;2022-10-23T10:15:26;18.20;78.20
12229;DHT22;6177;52.402;9.800;2022-10-23T10:18:33;18.30;78.00
12229;DHT22;6177;52.402;9.800;2022-10-23T10:21:47;18.30;77.70
12229;DHT22;6177;52.402;9.800;2022-10-23T10:24:48;18.40;77.60
12229;DHT22;6177;52.402;9.800;2022-10-23T10:31:09;18.40;77.40
12229;DHT22;6177;52.402;9.800;2022-10-23T10:34:20;18.50;77.20
12229;DHT22;6177;52.402;9.800;2022-10-23T10:37:28;18.50;77.10
12229;DHT22;6177;52.402;9.800;2022-10-23T10:46:12;18.70;76.60
12229;DHT22;6177;52.402;9.800;2022-10-23T10:49:16;18.70;76.40
12229;DHT22;6177;52.402;9.800;2022-10-23T10:52:22;18.80;76.80
12229;DHT22;6177;52.402;9.800;2022-10-23T10:55:17;18.90;76.10
12229;DHT22;6177;52.402;9.800;2022-10-23T11:01:32;19.30;75.60
12229;DHT22;6177;52.402;9.800;2022-10-23T11:04:39;19.40;75.00
12229;DHT22;6177;52.402;9.800;2022-10-23T11:07:29;19.50;74.60
12229;DHT22;6177;52.402;9.800;2022-10-23T11:10:18;19.50;73.70
12229;DHT22;6177;52.402;9.800;2022-10-23T11:13:03;19.60;73.40
12229;DHT22;6177;52.402;9.800;2022-10-23T11:15:48;19.60;72.90
12229;DHT22;6177;52.402;9.800;2022-10-23T11:18:34;19.70;72.70
12229;DHT22;6177;52.402;9.800;2022-10-23T11:21:40;19.80;72.40
12229;DHT22;6177;52.402;9.800;2022-10-23T11:31:04;20.30;70.80
12229;DHT22;6177;52.402;9.800;2022-10-23T11:36:58;20.40;70.10
12229;DHT22;6177;52.402;9.800;2022-10-23T11:40:12;20.50;70.10
12229;DHT22;6177;52.402;9.800;2022-10-23T11:42:59;20.60;69.90
12229;DHT22;6177;52.402;9.800;2022-10-23T11:45:44;20.70;69.50
12229;DHT22;6177;52.402;9.800;2022-10-23T11:48:37;20.70;69.30
12229;DHT22;6177;52.402;9.800;2022-10-23T11:54:21;20.80;68.80
12229;DHT22;6177;52.402;9.800;2022-10-23T11:57:15;20.80;67.90
12229;DHT22;6177;52.402;9.800;2022-10-23T12:00:00;21.00;67.40
12229;DHT22;6177;52.402;9.800;2022-10-23T12:02:50;21.00;66.70
12229;DHT22;6177;52.402;9.800;2022-10-23T12:05:37;21.20;66.50
12229;DHT22;6177;52.402;9.800;2022-10-23T12:08:28;21.40;65.60
12229;DHT22;6177;52.402;9.800;2022-10-23T12:11:47;21.90;65.00
12229;DHT22;6177;52.402;9.800;2022-10-23T12:14:44;22.60;63.90
12229;DHT22;6177;52.402;9.800;2022-10-23T12:17:33;23.30;62.20
12229;DHT22;6177;52.402;9.800;2022-10-23T12:20:38;23.80;60.60
12229;DHT22;6177;52.402;9.800;2022-10-23T12:26:58;24.20;59.40
12229;DHT22;6177;52.402;9.800;2022-10-23T12:32:48;24.30;57.90
12229;DHT22;6177;52.402;9.800;2022-10-23T12:35:58;24.10;58.10
12229;DHT22;6177;52.402;9.800;2022-10-23T12:38:45;23.90;58.60
12229;DHT22;6177;52.402;9.800;2022-10-23T12:41:32;23.60;59.00
12229;DHT22;6177;52.402;9.800;2022-10-23T12:44:17;23.50;59.70
12229;DHT22;6177;52.402;9.800;2022-10-23T12:47:03;23.50;59.90
12229;DHT22;6177;52.402;9.800;2022-10-23T12:49:49;23.70;59.70
12229;DHT22;6177;52.402;9.800;2022-10-23T12:52:34;23.90;58.90
12229;DHT22;6177;52.402;9.800;2022-10-23T12:55:25;23.80;58.70
12229;DHT22;6177;52.402;9.800;2022-10-23T12:58:18;23.60;59.80
12229;DHT22;6177;52.402;9.800;2022-10-23T13:01:05;23.20;60.40
12229;DHT22;6177;52.402;9.800;2022-10-23T13:03:49;22.80;61.00
12229;DHT22;6177;52.402;9.800;2022-10-23T13:06:35;22.50;61.60
12229;DHT22;6177;52.402;9.800;2022-10-23T13:09:32;22.20;62.20
12229;DHT22;6177;52.402;9.800;2022-10-23T13:12:39;21.90;62.80
12229;DHT22;6177;52.402;9.800;2022-10-23T13:15:25;21.60;63.80
12229;DHT22;6177;52.402;9.800;2022-10-23T13:18:19;21.50;64.40
12229;DHT22;6177;52.402;9.800;2022-10-23T13:21:09;21.40;64.90
12229;DHT22;6177;52.402;9.800;2022-10-23T13:23:57;21.30;65.60
12229;DHT22;6177;52.402;9.800;2022-10-23T13:26:42;21.20;65.30
12229;DHT22;6177;52.402;9.800;2022-10-23T13:29:30;21.10;65.40
12229;DHT22;6177;52.402;9.800;2022-10-23T13:32:25;21.10;65.60
12229;DHT22;6177;52.402;9.800;2022-10-23T13:35:21;21.10;65.70
12229;DHT22;6177;52.402;9.800;2022-10-23T13:38:07;21.00;65.60
12229;DHT22;6177;52.402;9.800;2022-10-23T13:40:58;21.00;65.90
12229;DHT22;6177;52.402;9.800;2022-10-23T13:43:44;20.90;65.70
12229;DHT22;6177;52.402;9.800;2022-10-23T13:46:29;20.90;65.80
12229;DHT22;6177;52.402;9.800;2022-10-23T13:49:14;20.80;65.90
12229;DHT22;6177;52.402;9.800;2022-10-23T13:52:01;20.70;66.30
12229;DHT22;6177;52.402;9.800;2022-10-23T13:54:45;20.60;66.60
12229;DHT22;6177;52.402;9.800;2022-10-23T13:57:30;20.50;66.70
12229;DHT22;6177;52.402;9.800;2022-10-23T14:00:15;20.40;66.90
12229;DHT22;6177;52.402;9.800;2022-10-23T14:03:00;20.30;67.20
12229;DHT22;6177;52.402;9.800;2022-10-23T14:05:45;20.20;67.30
12229;DHT22;6177;52.402;9.800;2022-10-23T14:08:30;20.20;67.50
12229;DHT22;6177;52.402;9.800;2022-10-23T14:11:16;20.10;67.90
12229;DHT22;6177;52.402;9.800;2022-10-23T14:14:01;20.10;67.90
12229;DHT22;6177;52.402;9.800;2022-10-23T14:16:46;20.00;68.00
12229;DHT22;6177;52.402;9.800;2022-10-23T14:19:32;20.00;68.00
12229;DHT22;6177;52.402;9.800;2022-10-23T14:22:17;19.80;68.30
12229;DHT22;6177;52.402;9.800;2022-10-23T14:25:02;19.80;68.60
12229;DHT22;6177;52.402;9.800;2022-10-23T14:27:47;19.70;68.60
12229;DHT22;6177;52.402;9.800;2022-10-23T14:30:34;19.70;68.70
12229;DHT22;6177;52.402;9.800;2022-10-23T14:33:19;19.70;68.90
12229;DHT22;6177;52.402;9.800;2022-10-23T14:36:04;19.70;68.90
12229;DHT22;6177;52.402;9.800;2022-10-23T14:38:49;19.70;69.00
12229;DHT22;6177;52.402;9.800;2022-10-23T14:41:37;19.70;69.10
12229;DHT22;6177;52.402;9.800;2022-10-23T14:44:23;19.70;69.00
12229;DHT22;6177;52.402;9.800;2022-10-23T14:47:08;19.70;69.00
12229;DHT22;6177;52.402;9.800;2022-10-23T14:49:53;19.70;69.00
12229;DHT22;6177;52.402;9.800;2022-10-23T14:52:38;19.60;69.10
12229;DHT22;6177;52.402;9.800;2022-10-23T14:55:22;19.60;69.30
12229;DHT22;6177;52.402;9.800;2022-10-23T14:58:07;19.50;69.40
12229;DHT22;6177;52.402;9.800;2022-10-23T15:00:59;19.40;69.80
12229;DHT22;6177;52.402;9.800;2022-10-23T15:03:44;19.30;70.00
12229;DHT22;6177;52.402;9.800;2022-10-23T15:06:29;19.30;70.30
12229;DHT22;6177;52.402;9.800;2022-10-23T15:09:13;19.20;70.60
12229;DHT22;6177;52.402;9.800;2022-10-23T15:11:58;19.20;70.80
12229;DHT22;6177;52.402;9.800;2022-10-23T15:14:43;19.20;70.90
12229;DHT22;6177;52.402;9.800;2022-10-23T15:17:27;19.10;70.80
12229;DHT22;6177;52.402;9.800;2022-10-23T15:20:12;19.10;70.90
12229;DHT22;6177;52.402;9.800;2022-10-23T15:22:57;19.00;71.10
12229;DHT22;6177;52.402;9.800;2022-10-23T15:25:42;18.90;71.30
12229;DHT22;6177;52.402;9.800;2022-10-23T15:28:27;18.80;71.40
12229;DHT22;6177;52.402;9.800;2022-10-23T15:34:23;18.70;71.60
12229;DHT22;6177;52.402;9.800;2022-10-23T15:37:09;18.60;71.90
12229;DHT22;6177;52.402;9.800;2022-10-23T15:39:55;18.50;72.20
12229;DHT22;6177;52.402;9.800;2022-10-23T15:42:40;18.40;72.40
12229;DHT22;6177;52.402;9.800;2022-10-23T15:45:24;18.30;72.80
12229;DHT22;6177;52.402;9.800;2022-10-23T15:48:09;18.20;73.20
12229;DHT22;6177;52.402;9.800;2022-10-23T15:50:54;18.10;73.70
12229;DHT22;6177;52.402;9.800;2022-10-23T15:53:39;18.00;73.90
12229;DHT22;6177;52.402;9.800;2022-10-23T15:56:24;17.90;74.20
12229;DHT22;6177;52.402;9.800;2022-10-23T15:59:09;17.80;74.80
12229;DHT22;6177;52.402;9.800;2022-10-23T16:01:53;17.80;74.70
12229;DHT22;6177;52.402;9.800;2022-10-23T16:04:38;17.60;75.00
12229;DHT22;6177;52.402;9.800;2022-10-23T16:07:23;17.60;75.20
12229;DHT22;6177;52.402;9.800;2022-10-23T16:10:08;17.50;75.40
12229;DHT22;6177;52.402;9.800;2022-10-23T16:12:52;17.40;75.60
12229;DHT22;6177;52.402;9.800;2022-10-23T16:15:37;17.30;75.80
12229;DHT22;6177;52.402;9.800;2022-10-23T16:18:22;17.30;76.10
12229;DHT22;6177;52.402;9.800;2022-10-23T16:21:11;17.20;76.40
12229;DHT22;6177;52.402;9.800;2022-10-23T16:24:00;17.10;76.60
12229;DHT22;6177;52.402;9.800;2022-10-23T16:26:45;17.00;76.80
12229;DHT22;6177;52.402;9.800;2022-10-23T16:29:35;17.00;77.00
12229;DHT22;6177;52.402;9.800;2022-10-23T16:32:19;17.00;77.20
12229;DHT22;6177;52.402;9.800;2022-10-23T16:35:04;17.00;77.10
12229;DHT22;6177;52.402;9.800;2022-10-23T16:37:57;17.00;77.00
12229;DHT22;6177;52.402;9.800;2022-10-23T16:40:49;17.00;76.90
12229;DHT22;6177;52.402;9.800;2022-10-23T16:43:56;17.10;76.80
12229;DHT22;6177;52.402;9.800;2022-10-23T16:46:59;17.00;76.80
12229;DHT22;6177;52.402;9.800;2022-10-23T16:49:43;17.00;76.80
12229;DHT22;6177;52.402;9.800;2022-10-23T16:52:28;17.00;76.80
12229;DHT22;6177;52.402;9.800;2022-10-23T16:55:12;17.00;76.70
12229;DHT22;6177;52.402;9.800;2022-10-23T16:57:57;17.00;76.80
12229;DHT22;6177;52.402;9.800;2022-10-23T17:00:43;16.90;76.60
12229;DHT22;6177;52.402;9.800;2022-10-23T17:03:29;16.90;76.60
12229;DHT22;6177;52.402;9.800;2022-10-23T17:06:17;16.80;76.70
12229;DHT22;6177;52.402;9.800;2022-10-23T17:09:03;16.80;76.60
12229;DHT22;6177;52.402;9.800;2022-10-23T17:11:48;16.70;76.70
12229;DHT22;6177;52.402;9.800;2022-10-23T17:14:34;16.70;76.70
12229;DHT22;6177;52.402;9.800;2022-10-23T17:17:19;16.70;76.60
12229;DHT22;6177;52.402;9.800;2022-10-23T17:20:04;16.60;76.60
12229;DHT22;6177;52.402;9.800;2022-10-23T17:22:48;16.50;76.50
12229;DHT22;6177;52.402;9.800;2022-10-23T17:25:33;16.50;76.50
12229;DHT22;6177;52.402;9.800;2022-10-23T17:28:18;16.50;76.60
12229;DHT22;6177;52.402;9.800;2022-10-23T17:31:02;16.50;76.60
12229;DHT22;6177;52.402;9.800;2022-10-23T17:33:48;16.40;76.60
12229;DHT22;6177;52.402;9.800;2022-10-23T17:36:38;16.40;76.70
12229;DHT22;6177;52.402;9.800;2022-10-23T17:39:26;16.40;76.60
12229;DHT22;6177;52.402;9.800;2022-10-23T17:42:10;16.40;76.70
12229;DHT22;6177;52.402;9.800;2022-10-23T17:44:55;16.50;76.60
12229;DHT22;6177;52.402;9.800;2022-10-23T17:47:40;16.50;76.40
12229;DHT22;6177;52.402;9.800;2022-10-23T17:50:26;16.60;76.70
12229;DHT22;6177;52.402;9.800;2022-10-23T17:53:11;16.60;76.20
12229;DHT22;6177;52.402;9.800;2022-10-23T17:55:56;16.70;75.90
12229;DHT22;6177;52.402;9.800;2022-10-23T17:58:41;16.70;75.70
12229;DHT22;6177;52.402;9.800;2022-10-23T18:01:27;16.80;75.90
12229;DHT22;6177;52.402;9.800;2022-10-23T18:04:13;16.90;75.20
12229;DHT22;6177;52.402;9.800;2022-10-23T18:06:58;16.90;75.00
12229;DHT22;6177;52.402;9.800;2022-10-23T18:09:44;17.00;74.90
12229;DHT22;6177;52.402;9.800;2022-10-23T18:12:28;17.00;75.00
12229;DHT22;6177;52.402;9.800;2022-10-23T18:15:13;17.10;74.80
12229;DHT22;6177;52.402;9.800;2022-10-23T18:17:57;17.10;74.60
12229;DHT22;6177;52.402;9.800;2022-10-23T18:20:42;17.10;75.60
12229;DHT22;6177;52.402;9.800;2022-10-23T18:23:28;16.80;76.90
12229;DHT22;6177;52.402;9.800;2022-10-23T18:26:31;16.60;78.50
12229;DHT22;6177;52.402;9.800;2022-10-23T18:29:21;16.50;78.90
12229;DHT22;6177;52.402;9.800;2022-10-23T18:32:05;16.50;79.40
12229;DHT22;6177;52.402;9.800;2022-10-23T18:34:50;16.40;79.70
12229;DHT22;6177;52.402;9.800;2022-10-23T18:37:34;16.40;80.00
12229;DHT22;6177;52.402;9.800;2022-10-23T18:40:19;16.30;80.30
12229;DHT22;6177;52.402;9.800;2022-10-23T18:43:05;16.30;80.70
12229;DHT22;6177;52.402;9.800;2022-10-23T18:45:50;16.30;80.80
12229;DHT22;6177;52.402;9.800;2022-10-23T18:48:34;16.30;81.00
12229;DHT22;6177;52.402;9.800;2022-10-23T18:51:23;16.30;81.30
12229;DHT22;6177;52.402;9.800;2022-10-23T18:54:11;16.30;81.60
12229;DHT22;6177;52.402;9.800;2022-10-23T18:56:56;16.30;82.30
12229;DHT22;6177;52.402;9.800;2022-10-23T18:59:40;16.30;82.80
12229;DHT22;6177;52.402;9.800;2022-10-23T19:02:25;16.20;83.40
12229;DHT22;6177;52.402;9.800;2022-10-23T19:05:10;16.20;84.00
12229;DHT22;6177;52.402;9.800;2022-10-23T19:07:54;16.20;84.40
12229;DHT22;6177;52.402;9.800;2022-10-23T19:10:41;16.20;84.90
12229;DHT22;6177;52.402;9.800;2022-10-23T19:13:27;16.20;85.40
12229;DHT22;6177;52.402;9.800;2022-10-23T19:16:13;16.20;86.10
12229;DHT22;6177;52.402;9.800;2022-10-23T19:19:05;16.20;86.50
12229;DHT22;6177;52.402;9.800;2022-10-23T19:21:50;16.20;86.70
12229;DHT22;6177;52.402;9.800;2022-10-23T19:24:40;16.20;86.40
12229;DHT22;6177;52.402;9.800;2022-10-23T19:27:25;16.20;86.20